Terminal Aerodrome Forecast
Issued by NWS Charleston, WV

Home | Current Version | Previous Version | Text Only | Print | Product List | Glossary On
Versions: 1 2 3 4 5 6 7 8 9 10 11 12 13 14 15 16 17 18 19 20 21 22 23
804
FTUS41 KRLX 041451 AAA
TAFCRW
TAF AMD
KCRW 041451Z 0415/0512 24003KT P6SM SCT010 BKN020
      TEMPO 0415/0416 BKN010
     FM041600 24006KT P6SM BKN040
     FM042300 24006KT 6SM -SHRA VCTS BKN040CB
     FM050100 25004KT 4SM SHRA BR VCTS OVC025CB
     FM050800 26003KT 5SM BR SCT020 BKN035=

USA.gov is the U.S. government's official web portal to all federal, state and local government web resources and services.